sensor_id;sensor_type;location;lat;lon;timestamp;temperature;humidity
67273;DHT22;54190;49.770;9.250;2024-02-26T00:02:02;7.10;99.90
67273;DHT22;54190;49.770;9.250;2024-02-26T00:04:28;7.00;99.90
67273;DHT22;54190;49.770;9.250;2024-02-26T00:06:53;7.00;99.90
67273;DHT22;54190;49.770;9.250;2024-02-26T00:09:20;7.00;99.90
67273;DHT22;54190;49.770;9.250;2024-02-26T00:11:45;7.00;99.90
67273;DHT22;54190;49.770;9.250;2024-02-26T00:14:11;7.00;99.90
67273;DHT22;54190;49.770;9.250;2024-02-26T00:16:40;7.00;99.90
67273;DHT22;54190;49.770;9.250;2024-02-26T00:19:06;7.00;99.90
67273;DHT22;54190;49.770;9.250;2024-02-26T00:21:32;7.00;99.90
67273;DHT22;54190;49.770;9.250;2024-02-26T00:23:57;6.90;99.90
67273;DHT22;54190;49.770;9.250;2024-02-26T00:26:23;6.90;99.90
67273;DHT22;54190;49.770;9.250;2024-02-26T00:28:48;6.90;99.90
67273;DHT22;54190;49.770;9.250;2024-02-26T00:31:14;6.90;99.90
67273;DHT22;54190;49.770;9.250;2024-02-26T00:33:40;6.90;99.90
67273;DHT22;54190;49.770;9.250;2024-02-26T00:36:05;7.00;99.90
67273;DHT22;54190;49.770;9.250;2024-02-26T00:38:31;6.90;99.90
67273;DHT22;54190;49.770;9.250;2024-02-26T00:40:57;6.90;99.90
67273;DHT22;54190;49.770;9.250;2024-02-26T00:43:22;6.90;99.90
67273;DHT22;54190;49.770;9.250;2024-02-26T00:45:48;6.80;99.90
67273;DHT22;54190;49.770;9.250;2024-02-26T00:48:14;6.80;99.90
67273;DHT22;54190;49.770;9.250;2024-02-26T00:50:40;6.80;99.90
67273;DHT22;54190;49.770;9.250;2024-02-26T00:53:06;6.80;99.90
67273;DHT22;54190;49.770;9.250;2024-02-26T00:55:31;6.90;99.90
67273;DHT22;54190;49.770;9.250;2024-02-26T00:57:57;6.90;99.90
67273;DHT22;54190;49.770;9.250;2024-02-26T01:00:22;6.80;99.90
67273;DHT22;54190;49.770;9.250;2024-02-26T01:02:48;6.80;99.90
67273;DHT22;54190;49.770;9.250;2024-02-26T01:05:14;6.70;99.90
67273;DHT22;54190;49.770;9.250;2024-02-26T01:07:40;6.70;99.90
67273;DHT22;54190;49.770;9.250;2024-02-26T01:10:06;6.70;99.90
67273;DHT22;54190;49.770;9.250;2024-02-26T01:12:33;6.70;99.90
67273;DHT22;54190;49.770;9.250;2024-02-26T01:15:00;6.60;99.90
67273;DHT22;54190;49.770;9.250;2024-02-26T01:17:25;6.50;99.90
67273;DHT22;54190;49.770;9.250;2024-02-26T01:19:51;6.50;99.90
67273;DHT22;54190;49.770;9.250;2024-02-26T01:22:17;6.50;99.90
67273;DHT22;54190;49.770;9.250;2024-02-26T01:24:43;6.50;99.90
67273;DHT22;54190;49.770;9.250;2024-02-26T01:27:08;6.40;99.90
67273;DHT22;54190;49.770;9.250;2024-02-26T01:29:34;6.40;99.90
67273;DHT22;54190;49.770;9.250;2024-02-26T01:32:00;6.50;99.90
67273;DHT22;54190;49.770;9.250;2024-02-26T01:34:26;6.50;99.90
67273;DHT22;54190;49.770;9.250;2024-02-26T01:36:51;6.50;99.90
67273;DHT22;54190;49.770;9.250;2024-02-26T01:39:17;6.40;99.90
67273;DHT22;54190;49.770;9.250;2024-02-26T01:41:43;6.40;99.90
67273;DHT22;54190;49.770;9.250;2024-02-26T01:44:12;6.40;99.90
67273;DHT22;54190;49.770;9.250;2024-02-26T01:46:39;6.30;99.90
67273;DHT22;54190;49.770;9.250;2024-02-26T01:49:04;6.30;99.90
67273;DHT22;54190;49.770;9.250;2024-02-26T01:51:32;6.30;99.90
67273;DHT22;54190;49.770;9.250;2024-02-26T01:53:59;6.30;99.90
67273;DHT22;54190;49.770;9.250;2024-02-26T01:56:26;6.40;99.90
67273;DHT22;54190;49.770;9.250;2024-02-26T01:58:56;6.30;99.90
67273;DHT22;54190;49.770;9.250;2024-02-26T02:01:22;6.20;99.90
67273;DHT22;54190;49.770;9.250;2024-02-26T02:03:51;6.20;99.90
67273;DHT22;54190;49.770;9.250;2024-02-26T02:06:17;6.20;99.90
67273;DHT22;54190;49.770;9.250;2024-02-26T02:08:43;6.20;99.90
67273;DHT22;54190;49.770;9.250;2024-02-26T02:11:09;6.20;99.90
67273;DHT22;54190;49.770;9.250;2024-02-26T02:13:37;6.10;99.90
67273;DHT22;54190;49.770;9.250;2024-02-26T02:16:03;6.20;99.90
67273;DHT22;54190;49.770;9.250;2024-02-26T02:18:29;6.20;99.90
67273;DHT22;54190;49.770;9.250;2024-02-26T02:20:55;6.20;99.90
67273;DHT22;54190;49.770;9.250;2024-02-26T02:23:22;6.20;99.90
67273;DHT22;54190;49.770;9.250;2024-02-26T02:25:48;6.20;99.90
67273;DHT22;54190;49.770;9.250;2024-02-26T02:28:13;6.30;99.90
67273;DHT22;54190;49.770;9.250;2024-02-26T02:30:39;6.20;99.90
67273;DHT22;54190;49.770;9.250;2024-02-26T02:33:06;6.20;99.90
67273;DHT22;54190;49.770;9.250;2024-02-26T02:35:31;6.20;99.90
67273;DHT22;54190;49.770;9.250;2024-02-26T02:37:57;6.10;99.90
67273;DHT22;54190;49.770;9.250;2024-02-26T02:40:24;6.20;99.90
67273;DHT22;54190;49.770;9.250;2024-02-26T02:42:49;6.20;99.90
67273;DHT22;54190;49.770;9.250;2024-02-26T02:45:15;6.10;99.90
67273;DHT22;54190;49.770;9.250;2024-02-26T02:47:41;6.00;99.90
67273;DHT22;54190;49.770;9.250;2024-02-26T02:50:06;5.90;99.90
67273;DHT22;54190;49.770;9.250;2024-02-26T02:52:32;5.90;99.90
67273;DHT22;54190;49.770;9.250;2024-02-26T02:54:58;5.90;99.90
67273;DHT22;54190;49.770;9.250;2024-02-26T02:57:24;5.90;99.90
67273;DHT22;54190;49.770;9.250;2024-02-26T02:59:49;5.90;99.90
67273;DHT22;54190;49.770;9.250;2024-02-26T03:02:15;6.00;99.90
67273;DHT22;54190;49.770;9.250;2024-02-26T03:04:40;6.00;99.90
67273;DHT22;54190;49.770;9.250;2024-02-26T03:07:06;6.00;99.90
67273;DHT22;54190;49.770;9.250;2024-02-26T03:09:32;6.00;99.90
67273;DHT22;54190;49.770;9.250;2024-02-26T03:11:57;6.00;99.90
67273;DHT22;54190;49.770;9.250;2024-02-26T03:14:23;6.00;99.90
67273;DHT22;54190;49.770;9.250;2024-02-26T03:16:49;6.10;99.90
67273;DHT22;54190;49.770;9.250;2024-02-26T03:19:15;6.10;99.90
67273;DHT22;54190;49.770;9.250;2024-02-26T03:21:42;6.10;99.90
67273;DHT22;54190;49.770;9.250;2024-02-26T03:24:08;6.10;99.90
67273;DHT22;54190;49.770;9.250;2024-02-26T03:26:37;6.00;99.90
67273;DHT22;54190;49.770;9.250;2024-02-26T03:29:03;6.00;99.90
67273;DHT22;54190;49.770;9.250;2024-02-26T03:31:29;6.00;99.90
67273;DHT22;54190;49.770;9.250;2024-02-26T03:33:55;6.00;99.90
67273;DHT22;54190;49.770;9.250;2024-02-26T03:36:20;6.00;99.90
67273;DHT22;54190;49.770;9.250;2024-02-26T03:38:48;6.00;99.90
67273;DHT22;54190;49.770;9.250;2024-02-26T03:41:13;6.00;99.90
67273;DHT22;54190;49.770;9.250;2024-02-26T03:43:39;6.00;99.90
67273;DHT22;54190;49.770;9.250;2024-02-26T03:46:08;6.10;99.90
67273;DHT22;54190;49.770;9.250;2024-02-26T03:48:40;6.00;99.90
67273;DHT22;54190;49.770;9.250;2024-02-26T03:51:05;5.90;99.90
67273;DHT22;54190;49.770;9.250;2024-02-26T03:53:31;5.90;99.90
67273;DHT22;54190;49.770;9.250;2024-02-26T03:55:57;5.90;99.90
67273;DHT22;54190;49.770;9.250;2024-02-26T03:58:22;5.90;99.90
67273;DHT22;54190;49.770;9.250;2024-02-26T04:00:48;6.00;99.90
67273;DHT22;54190;49.770;9.250;2024-02-26T04:03:14;6.00;99.90
67273;DHT22;54190;49.770;9.250;2024-02-26T04:05:39;5.90;99.90
67273;DHT22;54190;49.770;9.250;2024-02-26T04:08:06;5.90;99.90
67273;DHT22;54190;49.770;9.250;2024-02-26T04:10:33;5.90;99.90
67273;DHT22;54190;49.770;9.250;2024-02-26T04:13:00;5.80;99.90
67273;DHT22;54190;49.770;9.250;2024-02-26T04:15:26;5.80;99.90
67273;DHT22;54190;49.770;9.250;2024-02-26T04:17:52;5.80;99.90
67273;DHT22;54190;49.770;9.250;2024-02-26T04:20:17;5.70;99.90
67273;DHT22;54190;49.770;9.250;2024-02-26T04:22:44;5.70;99.90
67273;DHT22;54190;49.770;9.250;2024-02-26T04:25:09;5.70;99.90
67273;DHT22;54190;49.770;9.250;2024-02-26T04:27:35;5.70;99.90
67273;DHT22;54190;49.770;9.250;2024-02-26T04:30:01;5.70;99.90
67273;DHT22;54190;49.770;9.250;2024-02-26T04:32:26;5.60;99.90
67273;DHT22;54190;49.770;9.250;2024-02-26T04:34:53;5.60;99.90
67273;DHT22;54190;49.770;9.250;2024-02-26T04:37:19;5.60;99.90
67273;DHT22;54190;49.770;9.250;2024-02-26T04:39:44;5.70;99.90
67273;DHT22;54190;49.770;9.250;2024-02-26T04:42:11;5.70;99.90
67273;DHT22;54190;49.770;9.250;2024-02-26T04:44:36;5.80;99.90
67273;DHT22;54190;49.770;9.250;2024-02-26T04:47:02;5.80;99.90
67273;DHT22;54190;49.770;9.250;2024-02-26T04:49:28;5.80;99.90
67273;DHT22;54190;49.770;9.250;2024-02-26T04:51:53;5.80;99.90
67273;DHT22;54190;49.770;9.250;2024-02-26T04:54:19;5.80;99.90
67273;DHT22;54190;49.770;9.250;2024-02-26T04:56:45;5.80;99.90
67273;DHT22;54190;49.770;9.250;2024-02-26T04:59:10;5.80;99.90
67273;DHT22;54190;49.770;9.250;2024-02-26T05:01:36;5.70;99.90
67273;DHT22;54190;49.770;9.250;2024-02-26T05:04:02;5.70;99.90
67273;DHT22;54190;49.770;9.250;2024-02-26T05:06:29;5.70;99.90
67273;DHT22;54190;49.770;9.250;2024-02-26T05:08:54;5.70;99.90
67273;DHT22;54190;49.770;9.250;2024-02-26T05:11:20;5.70;99.90
67273;DHT22;54190;49.770;9.250;2024-02-26T05:13:47;5.70;99.90
67273;DHT22;54190;49.770;9.250;2024-02-26T05:16:12;5.70;99.90
67273;DHT22;54190;49.770;9.250;2024-02-26T05:18:38;5.70;99.90
67273;DHT22;54190;49.770;9.250;2024-02-26T05:21:04;5.70;99.90
67273;DHT22;54190;49.770;9.250;2024-02-26T05:23:29;5.70;99.90
67273;DHT22;54190;49.770;9.250;2024-02-26T05:25:55;5.70;99.90
67273;DHT22;54190;49.770;9.250;2024-02-26T05:28:21;5.70;99.90
67273;DHT22;54190;49.770;9.250;2024-02-26T05:30:47;5.70;99.90
67273;DHT22;54190;49.770;9.250;2024-02-26T05:33:12;5.70;99.90
67273;DHT22;54190;49.770;9.250;2024-02-26T05:35:38;5.70;99.90
67273;DHT22;54190;49.770;9.250;2024-02-26T05:38:04;5.70;99.90
67273;DHT22;54190;49.770;9.250;2024-02-26T05:40:29;5.70;99.90
67273;DHT22;54190;49.770;9.250;2024-02-26T05:42:55;5.70;99.90
67273;DHT22;54190;49.770;9.250;2024-02-26T05:45:21;5.70;99.90
67273;DHT22;54190;49.770;9.250;2024-02-26T05:47:47;5.70;99.90
67273;DHT22;54190;49.770;9.250;2024-02-26T05:50:13;5.70;99.90
67273;DHT22;54190;49.770;9.250;2024-02-26T05:52:40;5.60;99.90
67273;DHT22;54190;49.770;9.250;2024-02-26T05:55:06;5.60;99.90
67273;DHT22;54190;49.770;9.250;2024-02-26T05:57:35;5.60;99.90
67273;DHT22;54190;49.770;9.250;2024-02-26T06:00:01;5.60;99.90
67273;DHT22;54190;49.770;9.250;2024-02-26T06:02:37;5.60;99.90
67273;DHT22;54190;49.770;9.250;2024-02-26T06:05:03;5.50;99.90
67273;DHT22;54190;49.770;9.250;2024-02-26T06:07:28;5.50;99.90
67273;DHT22;54190;49.770;9.250;2024-02-26T06:09:54;5.50;99.90
67273;DHT22;54190;49.770;9.250;2024-02-26T06:12:19;5.50;99.90
67273;DHT22;54190;49.770;9.250;2024-02-26T06:14:45;5.50;99.90
67273;DHT22;54190;49.770;9.250;2024-02-26T06:17:11;5.50;99.90
67273;DHT22;54190;49.770;9.250;2024-02-26T06:19:36;5.50;99.90
67273;DHT22;54190;49.770;9.250;2024-02-26T06:22:02;5.50;99.90
67273;DHT22;54190;49.770;9.250;2024-02-26T06:24:28;5.50;99.90
67273;DHT22;54190;49.770;9.250;2024-02-26T06:26:53;5.50;99.90
67273;DHT22;54190;49.770;9.250;2024-02-26T06:29:19;5.40;99.90
67273;DHT22;54190;49.770;9.250;2024-02-26T06:31:44;5.40;99.90
67273;DHT22;54190;49.770;9.250;2024-02-26T06:34:10;5.40;99.90
67273;DHT22;54190;49.770;9.250;2024-02-26T06:36:37;5.50;99.90
67273;DHT22;54190;49.770;9.250;2024-02-26T06:39:02;5.50;99.90
67273;DHT22;54190;49.770;9.250;2024-02-26T06:41:28;5.50;99.90
67273;DHT22;54190;49.770;9.250;2024-02-26T06:43:55;5.40;99.90
67273;DHT22;54190;49.770;9.250;2024-02-26T06:46:21;5.40;99.90
67273;DHT22;54190;49.770;9.250;2024-02-26T06:48:51;5.30;99.90
67273;DHT22;54190;49.770;9.250;2024-02-26T06:51:17;5.20;99.90
67273;DHT22;54190;49.770;9.250;2024-02-26T06:53:43;5.30;99.90
67273;DHT22;54190;49.770;9.250;2024-02-26T06:56:08;5.30;99.90
67273;DHT22;54190;49.770;9.250;2024-02-26T06:58:34;5.30;99.90
67273;DHT22;54190;49.770;9.250;2024-02-26T07:01:00;5.40;99.90
67273;DHT22;54190;49.770;9.250;2024-02-26T07:03:25;5.40;99.90
67273;DHT22;54190;49.770;9.250;2024-02-26T07:05:51;5.40;99.90
67273;DHT22;54190;49.770;9.250;2024-02-26T07:08:17;5.40;99.90
67273;DHT22;54190;49.770;9.250;2024-02-26T07:10:43;5.40;99.90
67273;DHT22;54190;49.770;9.250;2024-02-26T07:13:09;5.40;99.90
67273;DHT22;54190;49.770;9.250;2024-02-26T07:15:34;5.40;99.90
67273;DHT22;54190;49.770;9.250;2024-02-26T07:18:00;5.40;99.90
67273;DHT22;54190;49.770;9.250;2024-02-26T07:20:31;5.40;99.90
67273;DHT22;54190;49.770;9.250;2024-02-26T07:22:57;5.50;99.90
67273;DHT22;54190;49.770;9.250;2024-02-26T07:25:23;5.50;99.90
67273;DHT22;54190;49.770;9.250;2024-02-26T07:27:50;5.40;99.90
67273;DHT22;54190;49.770;9.250;2024-02-26T07:30:16;5.40;99.90
67273;DHT22;54190;49.770;9.250;2024-02-26T07:32:42;5.30;99.90
67273;DHT22;54190;49.770;9.250;2024-02-26T07:35:08;5.20;99.90
67273;DHT22;54190;49.770;9.250;2024-02-26T07:37:34;5.10;99.90
67273;DHT22;54190;49.770;9.250;2024-02-26T07:40:00;5.10;99.90
67273;DHT22;54190;49.770;9.250;2024-02-26T07:42:26;5.10;99.90
67273;DHT22;54190;49.770;9.250;2024-02-26T07:44:51;5.20;99.90
67273;DHT22;54190;49.770;9.250;2024-02-26T07:47:21;5.30;99.90
67273;DHT22;54190;49.770;9.250;2024-02-26T07:49:47;5.30;99.90
67273;DHT22;54190;49.770;9.250;2024-02-26T07:52:12;5.30;99.90
67273;DHT22;54190;49.770;9.250;2024-02-26T07:54:38;5.30;99.90
67273;DHT22;54190;49.770;9.250;2024-02-26T07:57:04;5.30;99.90
67273;DHT22;54190;49.770;9.250;2024-02-26T07:59:31;5.40;99.90
67273;DHT22;54190;49.770;9.250;2024-02-26T08:01:57;5.40;99.90
67273;DHT22;54190;49.770;9.250;2024-02-26T08:04:23;5.50;99.90
67273;DHT22;54190;49.770;9.250;2024-02-26T08:06:48;5.60;99.90
67273;DHT22;54190;49.770;9.250;2024-02-26T08:09:14;5.70;99.90
67273;DHT22;54190;49.770;9.250;2024-02-26T08:11:40;5.70;99.90
67273;DHT22;54190;49.770;9.250;2024-02-26T08:14:06;5.70;99.90
67273;DHT22;54190;49.770;9.250;2024-02-26T08:16:31;5.70;99.90
67273;DHT22;54190;49.770;9.250;2024-02-26T08:18:57;5.70;99.90
67273;DHT22;54190;49.770;9.250;2024-02-26T08:21:23;5.70;99.90
67273;DHT22;54190;49.770;9.250;2024-02-26T08:23:48;5.60;99.90
67273;DHT22;54190;49.770;9.250;2024-02-26T08:26:14;5.50;99.90
67273;DHT22;54190;49.770;9.250;2024-02-26T08:28:40;5.40;99.90
67273;DHT22;54190;49.770;9.250;2024-02-26T08:31:05;5.40;99.90
67273;DHT22;54190;49.770;9.250;2024-02-26T08:33:32;5.30;99.90
67273;DHT22;54190;49.770;9.250;2024-02-26T08:35:59;5.30;99.90
67273;DHT22;54190;49.770;9.250;2024-02-26T08:38:25;5.30;99.90
67273;DHT22;54190;49.770;9.250;2024-02-26T08:40:51;5.40;99.90
67273;DHT22;54190;49.770;9.250;2024-02-26T08:43:17;5.40;99.90
67273;DHT22;54190;49.770;9.250;2024-02-26T08:45:44;5.40;99.90
67273;DHT22;54190;49.770;9.250;2024-02-26T08:48:10;5.50;99.90
67273;DHT22;54190;49.770;9.250;2024-02-26T08:50:35;5.50;99.90
67273;DHT22;54190;49.770;9.250;2024-02-26T08:53:01;5.50;99.90
67273;DHT22;54190;49.770;9.250;2024-02-26T08:55:27;5.50;99.90
67273;DHT22;54190;49.770;9.250;2024-02-26T08:57:52;5.60;99.90
67273;DHT22;54190;49.770;9.250;2024-02-26T09:00:18;5.70;99.90
67273;DHT22;54190;49.770;9.250;2024-02-26T09:02:49;5.60;99.90
67273;DHT22;54190;49.770;9.250;2024-02-26T09:05:15;5.60;99.90
67273;DHT22;54190;49.770;9.250;2024-02-26T09:07:41;5.60;99.90
67273;DHT22;54190;49.770;9.250;2024-02-26T09:10:07;5.60;99.90
67273;DHT22;54190;49.770;9.250;2024-02-26T09:12:36;5.70;99.90
67273;DHT22;54190;49.770;9.250;2024-02-26T09:15:03;5.80;99.90
67273;DHT22;54190;49.770;9.250;2024-02-26T09:17:28;5.90;99.90
67273;DHT22;54190;49.770;9.250;2024-02-26T09:19:54;5.90;99.90
67273;DHT22;54190;49.770;9.250;2024-02-26T09:22:20;6.00;99.90
67273;DHT22;54190;49.770;9.250;2024-02-26T09:24:46;6.00;99.90
67273;DHT22;54190;49.770;9.250;2024-02-26T09:27:11;6.00;99.90
67273;DHT22;54190;49.770;9.250;2024-02-26T09:29:37;6.10;99.90
67273;DHT22;54190;49.770;9.250;2024-02-26T09:32:03;6.00;99.90
67273;DHT22;54190;49.770;9.250;2024-02-26T09:34:29;6.00;99.90
67273;DHT22;54190;49.770;9.250;2024-02-26T09:36:54;6.00;99.90
67273;DHT22;54190;49.770;9.250;2024-02-26T09:39:20;6.10;99.90
67273;DHT22;54190;49.770;9.250;2024-02-26T09:41:47;6.20;99.90
67273;DHT22;54190;49.770;9.250;2024-02-26T09:44:19;6.20;99.90
67273;DHT22;54190;49.770;9.250;2024-02-26T09:46:52;6.30;99.90
67273;DHT22;54190;49.770;9.250;2024-02-26T09:49:23;6.30;99.90
67273;DHT22;54190;49.770;9.250;2024-02-26T09:51:50;6.20;99.90
67273;DHT22;54190;49.770;9.250;2024-02-26T09:54:17;6.20;99.90
67273;DHT22;54190;49.770;9.250;2024-02-26T09:56:43;6.20;99.90
67273;DHT22;54190;49.770;9.250;2024-02-26T09:59:15;6.20;99.90
67273;DHT22;54190;49.770;9.250;2024-02-26T10:01:42;6.20;99.90
67273;DHT22;54190;49.770;9.250;2024-02-26T10:04:10;6.30;99.90
67273;DHT22;54190;49.770;9.250;2024-02-26T10:06:37;6.40;99.90
67273;DHT22;54190;49.770;9.250;2024-02-26T10:09:03;6.40;99.90
67273;DHT22;54190;49.770;9.250;2024-02-26T10:11:32;6.40;99.90
67273;DHT22;54190;49.770;9.250;2024-02-26T10:13:58;6.40;99.90
67273;DHT22;54190;49.770;9.250;2024-02-26T10:16:26;6.40;99.90
67273;DHT22;54190;49.770;9.250;2024-02-26T10:18:53;6.40;99.90
67273;DHT22;54190;49.770;9.250;2024-02-26T10:21:23;6.40;99.90
67273;DHT22;54190;49.770;9.250;2024-02-26T10:23:49;6.40;99.90
67273;DHT22;54190;49.770;9.250;2024-02-26T10:26:19;6.40;99.90
67273;DHT22;54190;49.770;9.250;2024-02-26T10:28:45;6.40;99.90
67273;DHT22;54190;49.770;9.250;2024-02-26T10:31:13;6.40;99.90
67273;DHT22;54190;49.770;9.250;2024-02-26T10:33:39;6.50;99.90
67273;DHT22;54190;49.770;9.250;2024-02-26T10:36:07;6.50;99.90
67273;DHT22;54190;49.770;9.250;2024-02-26T10:38:37;6.60;99.90
67273;DHT22;54190;49.770;9.250;2024-02-26T10:41:04;6.70;99.90
67273;DHT22;54190;49.770;9.250;2024-02-26T10:43:31;6.70;99.90
67273;DHT22;54190;49.770;9.250;2024-02-26T10:45:57;6.80;99.90
67273;DHT22;54190;49.770;9.250;2024-02-26T10:48:23;6.80;99.90
67273;DHT22;54190;49.770;9.250;2024-02-26T10:50:52;6.90;99.90
67273;DHT22;54190;49.770;9.250;2024-02-26T10:53:22;6.90;99.90
67273;DHT22;54190;49.770;9.250;2024-02-26T10:55:58;6.90;99.90
67273;DHT22;54190;49.770;9.250;2024-02-26T10:58:27;7.00;99.90
67273;DHT22;54190;49.770;9.250;2024-02-26T11:00:55;7.00;99.90
67273;DHT22;54190;49.770;9.250;2024-02-26T11:03:22;7.00;99.90
67273;DHT22;54190;49.770;9.250;2024-02-26T11:05:49;7.20;99.90
67273;DHT22;54190;49.770;9.250;2024-02-26T11:08:21;7.20;99.90
67273;DHT22;54190;49.770;9.250;2024-02-26T11:10:53;7.30;99.90
67273;DHT22;54190;49.770;9.250;2024-02-26T11:13:21;7.40;99.90
67273;DHT22;54190;49.770;9.250;2024-02-26T11:15:51;7.40;99.90
67273;DHT22;54190;49.770;9.250;2024-02-26T11:18:19;7.50;99.90
67273;DHT22;54190;49.770;9.250;2024-02-26T11:20:49;7.60;99.90
67273;DHT22;54190;49.770;9.250;2024-02-26T11:23:19;7.70;99.90
67273;DHT22;54190;49.770;9.250;2024-02-26T11:25:45;7.70;99.90
67273;DHT22;54190;49.770;9.250;2024-02-26T11:28:15;7.80;99.90
67273;DHT22;54190;49.770;9.250;2024-02-26T11:30:46;7.80;99.90
67273;DHT22;54190;49.770;9.250;2024-02-26T11:33:14;7.80;99.90
67273;DHT22;54190;49.770;9.250;2024-02-26T11:35:40;7.90;99.90
67273;DHT22;54190;49.770;9.250;2024-02-26T11:38:06;8.00;99.90
67273;DHT22;54190;49.770;9.250;2024-02-26T11:40:37;8.00;99.90
67273;DHT22;54190;49.770;9.250;2024-02-26T11:43:05;8.00;99.90
67273;DHT22;54190;49.770;9.250;2024-02-26T11:48:24;8.20;99.90
67273;DHT22;54190;49.770;9.250;2024-02-26T11:50:54;8.40;99.90
67273;DHT22;54190;49.770;9.250;2024-02-26T11:53:31;8.50;99.90
67273;DHT22;54190;49.770;9.250;2024-02-26T11:58:43;8.80;99.90
67273;DHT22;54190;49.770;9.250;2024-02-26T12:01:38;8.80;99.90
67273;DHT22;54190;49.770;9.250;2024-02-26T12:04:33;9.00;99.90
67273;DHT22;54190;49.770;9.250;2024-02-26T12:07:02;9.00;99.90
67273;DHT22;54190;49.770;9.250;2024-02-26T12:09:48;9.10;99.90
67273;DHT22;54190;49.770;9.250;2024-02-26T12:12:18;9.20;99.90
67273;DHT22;54190;49.770;9.250;2024-02-26T12:14:52;9.50;99.90
67273;DHT22;54190;49.770;9.250;2024-02-26T12:17:22;9.70;99.90
67273;DHT22;54190;49.770;9.250;2024-02-26T12:19:49;9.90;99.90
67273;DHT22;54190;49.770;9.250;2024-02-26T12:22:16;10.10;99.90
67273;DHT22;54190;49.770;9.250;2024-02-26T12:24:42;10.20;99.90
67273;DHT22;54190;49.770;9.250;2024-02-26T12:27:08;10.20;99.90
67273;DHT22;54190;49.770;9.250;2024-02-26T12:29:34;10.20;99.90
67273;DHT22;54190;49.770;9.250;2024-02-26T12:32:00;10.30;99.90
67273;DHT22;54190;49.770;9.250;2024-02-26T12:34:26;10.30;99.90
67273;DHT22;54190;49.770;9.250;2024-02-26T12:36:54;10.20;99.90
67273;DHT22;54190;49.770;9.250;2024-02-26T12:39:20;10.20;99.90
67273;DHT22;54190;49.770;9.250;2024-02-26T12:41:46;10.20;99.90
67273;DHT22;54190;49.770;9.250;2024-02-26T12:44:24;10.20;99.90
67273;DHT22;54190;49.770;9.250;2024-02-26T12:46:50;10.10;99.90
67273;DHT22;54190;49.770;9.250;2024-02-26T12:49:16;10.10;99.90
67273;DHT22;54190;49.770;9.250;2024-02-26T12:51:44;10.10;99.90
67273;DHT22;54190;49.770;9.250;2024-02-26T12:54:10;10.00;99.90
67273;DHT22;54190;49.770;9.250;2024-02-26T12:56:36;10.00;99.90
67273;DHT22;54190;49.770;9.250;2024-02-26T12:59:02;10.00;99.90
67273;DHT22;54190;49.770;9.250;2024-02-26T13:01:29;10.00;99.90
67273;DHT22;54190;49.770;9.250;2024-02-26T13:03:56;9.90;99.90
67273;DHT22;54190;49.770;9.250;2024-02-26T13:06:22;9.90;99.90
67273;DHT22;54190;49.770;9.250;2024-02-26T13:08:48;9.90;99.90
67273;DHT22;54190;49.770;9.250;2024-02-26T13:11:14;9.90;99.90
67273;DHT22;54190;49.770;9.250;2024-02-26T13:13:40;9.90;99.90
67273;DHT22;54190;49.770;9.250;2024-02-26T13:16:09;9.90;99.90
67273;DHT22;54190;49.770;9.250;2024-02-26T13:18:35;9.90;99.90
67273;DHT22;54190;49.770;9.250;2024-02-26T13:21:12;9.90;99.90
67273;DHT22;54190;49.770;9.250;2024-02-26T13:23:42;9.90;99.90
67273;DHT22;54190;49.770;9.250;2024-02-26T13:26:08;9.90;99.90
67273;DHT22;54190;49.770;9.250;2024-02-26T13:28:37;9.90;99.90
67273;DHT22;54190;49.770;9.250;2024-02-26T13:31:03;9.90;99.90
67273;DHT22;54190;49.770;9.250;2024-02-26T13:33:31;9.90;99.90
67273;DHT22;54190;49.770;9.250;2024-02-26T13:35:58;9.90;99.90
67273;DHT22;54190;49.770;9.250;2024-02-26T13:38:24;9.90;99.90
67273;DHT22;54190;49.770;9.250;2024-02-26T13:40:50;10.00;99.90
67273;DHT22;54190;49.770;9.250;2024-02-26T13:43:16;10.00;99.90
67273;DHT22;54190;49.770;9.250;2024-02-26T13:45:42;10.00;99.90
67273;DHT22;54190;49.770;9.250;2024-02-26T13:48:09;10.00;99.90
67273;DHT22;54190;49.770;9.250;2024-02-26T13:50:39;10.00;99.90
67273;DHT22;54190;49.770;9.250;2024-02-26T13:53:05;10.00;99.90
67273;DHT22;54190;49.770;9.250;2024-02-26T13:55:31;10.00;99.90
67273;DHT22;54190;49.770;9.250;2024-02-26T13:57:58;10.00;99.90
67273;DHT22;54190;49.770;9.250;2024-02-26T14:00:27;10.00;99.90
67273;DHT22;54190;49.770;9.250;2024-02-26T14:02:53;10.00;99.90
67273;DHT22;54190;49.770;9.250;2024-02-26T14:05:19;10.00;99.90
67273;DHT22;54190;49.770;9.250;2024-02-26T14:07:45;10.00;99.90
67273;DHT22;54190;49.770;9.250;2024-02-26T14:10:14;10.00;99.90
67273;DHT22;54190;49.770;9.250;2024-02-26T14:12:41;10.10;99.90
67273;DHT22;54190;49.770;9.250;2024-02-26T14:15:07;10.10;99.90
67273;DHT22;54190;49.770;9.250;2024-02-26T14:17:33;10.20;99.90
67273;DHT22;54190;49.770;9.250;2024-02-26T14:19:59;10.20;99.90
67273;DHT22;54190;49.770;9.250;2024-02-26T14:22:25;10.30;99.90
67273;DHT22;54190;49.770;9.250;2024-02-26T14:24:53;10.20;99.90
67273;DHT22;54190;49.770;9.250;2024-02-26T14:27:19;10.20;99.90
67273;DHT22;54190;49.770;9.250;2024-02-26T14:29:48;10.20;99.90
67273;DHT22;54190;49.770;9.250;2024-02-26T14:32:13;10.10;99.90
67273;DHT22;54190;49.770;9.250;2024-02-26T14:34:39;10.10;99.90
67273;DHT22;54190;49.770;9.250;2024-02-26T14:37:05;10.10;99.90
67273;DHT22;54190;49.770;9.250;2024-02-26T14:39:32;10.10;99.90
67273;DHT22;54190;49.770;9.250;2024-02-26T14:41:58;10.10;99.90
67273;DHT22;54190;49.770;9.250;2024-02-26T14:44:24;10.10;99.90
67273;DHT22;54190;49.770;9.250;2024-02-26T14:46:50;10.10;99.90
67273;DHT22;54190;49.770;9.250;2024-02-26T14:49:16;10.10;99.90
67273;DHT22;54190;49.770;9.250;2024-02-26T14:51:43;10.00;99.90
67273;DHT22;54190;49.770;9.250;2024-02-26T14:54:11;10.00;99.90
67273;DHT22;54190;49.770;9.250;2024-02-26T14:56:36;10.00;99.90
67273;DHT22;54190;49.770;9.250;2024-02-26T14:59:02;10.00;99.90
67273;DHT22;54190;49.770;9.250;2024-02-26T15:01:28;10.00;99.90
67273;DHT22;54190;49.770;9.250;2024-02-26T15:03:54;10.00;99.90
67273;DHT22;54190;49.770;9.250;2024-02-26T15:06:19;10.00;99.90
67273;DHT22;54190;49.770;9.250;2024-02-26T15:08:45;10.10;99.90
67273;DHT22;54190;49.770;9.250;2024-02-26T15:11:11;10.00;99.90
67273;DHT22;54190;49.770;9.250;2024-02-26T15:13:37;10.10;99.90
67273;DHT22;54190;49.770;9.250;2024-02-26T15:16:03;10.00;99.90
67273;DHT22;54190;49.770;9.250;2024-02-26T15:18:29;10.00;99.90
67273;DHT22;54190;49.770;9.250;2024-02-26T15:20:54;10.10;99.90
67273;DHT22;54190;49.770;9.250;2024-02-26T15:23:20;10.00;99.90
67273;DHT22;54190;49.770;9.250;2024-02-26T15:25:46;10.00;99.90
67273;DHT22;54190;49.770;9.250;2024-02-26T15:28:11;10.00;99.90
67273;DHT22;54190;49.770;9.250;2024-02-26T15:30:39;9.90;99.90
67273;DHT22;54190;49.770;9.250;2024-02-26T15:33:05;9.90;99.90
67273;DHT22;54190;49.770;9.250;2024-02-26T15:35:30;9.90;99.90
67273;DHT22;54190;49.770;9.250;2024-02-26T15:37:56;9.90;99.90
67273;DHT22;54190;49.770;9.250;2024-02-26T15:40:23;9.90;99.90
67273;DHT22;54190;49.770;9.250;2024-02-26T15:42:49;9.90;99.90
67273;DHT22;54190;49.770;9.250;2024-02-26T15:45:15;10.00;99.90